Terminal Aerodrome Forecast
Issued by NWS

Home | Current Version | Previous Version | Text Only | Print | Product List | Glossary Off
Versions: 1 2 3 4 5 6 7 8 9 10 11 12 13 14 15

000
FTUS41 KCLE 251131
TAFFDY
TAF
KFDY 251131Z 2512/2612 20003KT P6SM SKC
     FM251500 22010KT P6SM SCT040 BKN150 PROB30 2601/2604 -TSRA
      BKN040CB
     FM260600 28005KT P6SM SCT020 BKN040 OVC150
     FM260800 31005KT P6SM BKN020=

USA.gov is the U.S. government's official web portal to all federal, state and local government web resources and services.